createdAt,value
2023-05-09T00:00:38.274Z,101610.25
2023-05-09T00:03:06.369Z,101607.06
2023-05-09T00:05:34.504Z,101613.06
2023-05-09T00:08:02.417Z,101615.66
2023-05-09T00:10:31.015Z,101614.78
2023-05-09T00:12:59.929Z,101620.13
2023-05-09T00:15:28.957Z,101619.34
2023-05-09T00:17:56.557Z,101615.66
2023-05-09T00:20:24.196Z,101615.72
2023-05-09T00:22:52.373Z,101608.03
2023-05-09T00:25:20.000Z,101618.84
2023-05-09T00:27:48.924Z,101621.38
2023-05-09T00:30:16.562Z,101620.31
2023-05-09T00:32:44.331Z,101615.88
2023-05-09T00:35:13.254Z,101619.69
2023-05-09T00:37:41.799Z,101620.53
2023-05-09T00:40:10.066Z,101624.75
2023-05-09T00:42:38.270Z,101621.16
2023-05-09T00:45:07.195Z,101619.44
2023-05-09T00:47:35.851Z,101615.31
2023-05-09T00:50:04.170Z,101617.88
2023-05-09T00:52:33.466Z,101622.41
2023-05-09T00:55:02.976Z,101617.00
2023-05-09T00:57:30.702Z,101617.72
2023-05-09T00:59:58.404Z,101622.22
2023-05-09T01:02:27.535Z,101625.72
2023-05-09T01:04:56.156Z,101620.31
2023-05-09T01:07:51.262Z,101627.53
2023-05-09T01:10:22.270Z,101616.25
2023-05-09T01:13:04.669Z,101618.75
2023-05-09T01:15:46.003Z,101624.97
2023-05-09T01:18:32.633Z,101622.22
2023-05-09T01:21:07.417Z,101618.72
2023-05-09T01:23:41.567Z,101623.38
2023-05-09T01:26:35.688Z,101613.75
2023-05-09T01:29:33.719Z,101613.75
2023-05-09T01:32:10.090Z,101612.97
2023-05-09T01:34:40.348Z,101616.63
2023-05-09T01:37:09.747Z,101618.34
2023-05-09T01:39:40.290Z,101621.91
2023-05-09T01:42:11.376Z,101619.13
2023-05-09T01:44:44.428Z,101623.38
2023-05-09T01:47:12.276Z,101622.47
2023-05-09T01:49:43.069Z,101630.63
2023-05-09T01:52:14.064Z,101617.72
2023-05-09T01:54:43.884Z,101622.22
2023-05-09T01:57:12.193Z,101625.94
2023-05-09T01:59:43.057Z,101612.78
2023-05-09T02:02:11.640Z,101625.94
2023-05-09T02:04:42.278Z,101635.41
2023-05-09T02:07:11.792Z,101632.81
2023-05-09T02:09:39.710Z,101626.66
2023-05-09T02:12:07.716Z,101626.00
2023-05-09T02:14:35.825Z,101627.97
2023-05-09T02:17:06.448Z,101622.56
2023-05-09T02:19:35.899Z,101629.91
2023-05-09T02:22:05.158Z,101633.47
2023-05-09T02:24:34.645Z,101619.56
2023-05-09T02:27:04.450Z,101631.78
2023-05-09T02:29:40.220Z,101626.50
2023-05-09T02:32:14.390Z,101629.44
2023-05-09T02:34:43.208Z,101619.72
2023-05-09T02:37:11.157Z,101626.81
2023-05-09T02:39:39.075Z,101624.09
2023-05-09T02:42:09.431Z,101624.84
2023-05-09T02:44:38.865Z,101631.00
2023-05-09T02:47:07.844Z,101630.94
2023-05-09T02:49:36.789Z,101637.38
2023-05-09T02:52:06.100Z,101635.25
2023-05-09T02:54:33.773Z,101637.38
2023-05-09T02:57:01.487Z,101642.78
2023-05-09T02:59:29.619Z,101635.66
2023-05-09T03:02:00.220Z,101634.91
2023-05-09T03:04:28.107Z,101638.13
2023-05-09T03:06:55.920Z,101637.59
2023-05-09T03:09:25.621Z,101640.13
2023-05-09T03:11:53.290Z,101641.16
2023-05-09T03:14:21.340Z,101643.09
2023-05-09T03:16:48.980Z,101652.00
2023-05-09T03:19:24.710Z,101646.34
2023-05-09T03:21:52.493Z,101650.69
2023-05-09T03:24:20.466Z,101659.63
2023-05-09T03:26:48.583Z,101662.28
2023-05-09T03:29:16.536Z,101657.91
2023-05-09T03:31:44.327Z,101663.19
2023-05-09T03:34:15.336Z,101665.50
2023-05-09T03:36:44.876Z,101668.06
2023-05-09T03:39:14.825Z,101662.06
2023-05-09T03:41:45.860Z,101667.13
2023-05-09T03:44:14.088Z,101670.34
2023-05-09T03:46:41.625Z,101667.13
2023-05-09T03:49:09.966Z,101663.63
2023-05-09T03:51:39.882Z,101669.78
2023-05-09T03:54:12.688Z,101672.25
2023-05-09T03:56:41.710Z,101681.91
2023-05-09T03:59:09.991Z,101669.06
2023-05-09T04:01:40.318Z,101686.75
2023-05-09T04:04:09.259Z,101689.34
2023-05-09T04:06:38.099Z,101686.63
2023-05-09T04:09:07.983Z,101688.16
2023-05-09T04:11:35.897Z,101692.34
2023-05-09T04:14:07.332Z,101695.00
2023-05-09T04:16:37.093Z,101693.78
2023-05-09T04:19:04.913Z,101702.22
2023-05-09T04:21:32.904Z,101698.78
2023-05-09T04:24:02.309Z,101696.25
2023-05-09T04:26:38.550Z,101698.34
2023-05-09T04:29:09.185Z,101695.00
2023-05-09T04:31:37.661Z,101694.78
2023-05-09T04:34:07.305Z,101700.84
2023-05-09T04:36:37.076Z,101699.13
2023-05-09T04:39:11.090Z,101699.06
2023-05-09T04:41:44.547Z,101701.13
2023-05-09T04:44:12.213Z,101695.44
2023-05-09T04:46:40.462Z,101700.38
2023-05-09T04:49:08.045Z,101695.91
2023-05-09T04:51:35.739Z,101698.72
2023-05-09T04:54:03.814Z,101700.16
2023-05-09T04:56:35.420Z,101693.72
2023-05-09T04:59:03.072Z,101698.34
2023-05-09T05:01:31.294Z,101694.56
2023-05-09T05:03:59.956Z,101700.41
2023-05-09T05:06:27.648Z,101700.16
2023-05-09T05:08:55.415Z,101700.25
2023-05-09T05:11:23.301Z,101701.81
2023-05-09T05:13:51.462Z,101700.16
2023-05-09T05:16:19.233Z,101704.22
2023-05-09T05:18:47.220Z,101703.63
2023-05-09T05:21:16.387Z,101702.66
2023-05-09T05:23:44.914Z,101697.00
2023-05-09T05:26:13.529Z,101700.19
2023-05-09T05:28:41.085Z,101702.66
2023-05-09T05:31:08.697Z,101706.66
2023-05-09T05:33:36.306Z,101708.69
2023-05-09T05:36:04.411Z,101712.50
2023-05-09T05:38:32.114Z,101710.16
2023-05-09T05:41:00.338Z,101711.41
2023-05-09T05:43:29.233Z,101712.19
2023-05-09T05:45:57.447Z,101709.91
2023-05-09T05:48:26.754Z,101714.47
2023-05-09T05:50:55.152Z,101716.31
2023-05-09T05:53:26.363Z,101724.13
2023-05-09T05:55:53.900Z,101721.19
2023-05-09T05:58:22.054Z,101722.22
2023-05-09T06:00:52.428Z,101719.25
2023-05-09T06:03:20.298Z,101718.91
2023-05-09T06:05:52.318Z,101717.28
2023-05-09T06:08:20.130Z,101712.13
2023-05-09T06:10:47.663Z,101717.78
2023-05-09T06:13:15.597Z,101720.81
2023-05-09T06:15:48.028Z,101719.59
2023-05-09T06:18:16.311Z,101725.13
2023-05-09T06:20:43.927Z,101709.59
2023-05-09T06:23:11.439Z,101718.09
2023-05-09T06:25:39.217Z,101712.13
2023-05-09T06:28:07.687Z,101712.13
2023-05-09T06:30:35.272Z,101713.84
2023-05-09T06:33:03.180Z,101705.28
2023-05-09T06:35:31.152Z,101705.97
2023-05-09T06:37:58.697Z,101713.78
2023-05-09T06:40:26.303Z,101717.09
2023-05-09T06:42:53.885Z,101711.50
2023-05-09T06:45:21.446Z,101719.25
2023-05-09T06:47:49.361Z,101720.84
2023-05-09T06:50:17.001Z,101714.81
2023-05-09T06:52:44.655Z,101708.19
2023-05-09T06:55:12.380Z,101713.44
2023-05-09T06:57:43.106Z,101716.16
2023-05-09T07:00:11.435Z,101714.56
2023-05-09T07:02:42.205Z,101708.13
2023-05-09T07:05:10.772Z,101719.69
2023-05-09T07:07:38.829Z,101709.38
2023-05-09T07:10:11.393Z,101716.47
2023-05-09T07:12:40.854Z,101712.06
2023-05-09T07:15:09.125Z,101717.53
2023-05-09T07:17:38.998Z,101715.50
2023-05-09T07:20:07.242Z,101702.16
2023-05-09T07:22:36.985Z,101708.63
2023-05-09T07:25:07.587Z,101705.16
2023-05-09T07:27:36.550Z,101707.31
2023-05-09T07:30:09.270Z,101702.38
2023-05-09T07:32:38.089Z,101708.56
2023-05-09T07:35:06.098Z,101712.72
2023-05-09T07:37:33.783Z,101695.00
2023-05-09T07:40:01.641Z,101697.56
2023-05-09T07:42:30.529Z,101693.53
2023-05-09T07:44:59.186Z,101696.53
2023-05-09T07:47:26.823Z,101692.41
2023-05-09T07:49:54.602Z,101690.31
2023-05-09T07:52:22.512Z,101692.03
2023-05-09T07:54:50.279Z,101687.72
2023-05-09T07:57:18.030Z,101686.47
2023-05-09T07:59:45.898Z,101675.59
2023-05-09T08:02:13.619Z,101664.25
2023-05-09T08:04:41.729Z,101665.69
2023-05-09T08:07:09.528Z,101670.69
2023-05-09T08:09:37.657Z,101665.38
2023-05-09T08:12:06.071Z,101659.84
2023-05-09T08:14:33.701Z,101656.25
2023-05-09T08:17:02.527Z,101650.47
2023-05-09T08:19:30.270Z,101650.94
2023-05-09T08:21:57.785Z,101650.59
2023-05-09T08:24:25.350Z,101654.94
2023-05-09T08:26:52.977Z,101653.34
2023-05-09T08:29:20.601Z,101647.09
2023-05-09T08:31:48.216Z,101647.31
2023-05-09T08:34:16.080Z,101645.03
2023-05-09T08:36:47.055Z,101638.78
2023-05-09T08:39:14.741Z,101645.22
2023-05-09T08:41:42.999Z,101640.56
2023-05-09T08:44:11.121Z,101640.25
2023-05-09T08:46:43.299Z,101638.09
2023-05-09T08:49:11.189Z,101632.34
2023-05-09T08:51:40.040Z,101636.28
2023-05-09T08:54:07.979Z,101630.41
2023-05-09T08:56:36.047Z,101617.50
2023-05-09T08:59:05.922Z,101605.75
2023-05-09T09:01:36.594Z,101622.16
2023-05-09T09:04:08.940Z,101621.50
2023-05-09T09:06:37.229Z,101624.00
2023-05-09T09:09:06.634Z,101617.56
2023-05-09T09:11:36.922Z,101618.34
2023-05-09T09:14:20.380Z,101609.75
2023-05-09T09:16:50.129Z,101608.06
2023-05-09T09:19:18.744Z,101606.66
2023-05-09T09:21:49.864Z,101607.69
2023-05-09T09:24:23.822Z,101607.97
2023-05-09T09:26:51.680Z,101600.47
2023-05-09T09:29:20.723Z,101598.84
2023-05-09T09:31:52.332Z,101609.22
2023-05-09T09:34:23.200Z,101600.31
2023-05-09T09:36:51.140Z,101605.38
2023-05-09T09:39:18.698Z,101603.13
2023-05-09T09:41:46.271Z,101611.03
2023-05-09T09:44:18.302Z,101607.78
2023-05-09T09:46:47.272Z,101601.72
2023-05-09T09:49:16.461Z,101607.00
2023-05-09T09:51:44.699Z,101605.66
2023-05-09T09:54:13.200Z,101599.38
2023-05-09T09:56:42.884Z,101600.97
2023-05-09T09:59:21.813Z,101598.97
2023-05-09T10:02:12.339Z,101597.63
2023-05-09T10:04:42.737Z,101587.03
2023-05-09T10:07:13.737Z,101591.41
2023-05-09T10:09:44.015Z,101602.75
2023-05-09T10:12:14.771Z,101595.03
2023-05-09T10:14:43.583Z,101597.63
2023-05-09T10:17:14.905Z,101596.34
2023-05-09T10:19:46.618Z,101601.44
2023-05-09T10:22:17.983Z,101599.72
2023-05-09T10:25:03.628Z,101595.88
2023-05-09T10:27:35.036Z,101590.00
2023-05-09T10:30:13.964Z,101589.78
2023-05-09T10:32:53.692Z,101594.94
2023-05-09T10:35:28.052Z,101594.00
2023-05-09T10:37:59.715Z,101588.66
2023-05-09T10:40:28.829Z,101593.22
2023-05-09T10:42:56.595Z,101590.47
2023-05-09T10:45:24.702Z,101595.69
2023-05-09T10:47:54.077Z,101587.03
2023-05-09T10:50:22.489Z,101591.78
2023-05-09T10:53:05.656Z,101587.97
2023-05-09T10:55:59.119Z,101595.69
2023-05-09T10:58:31.992Z,101584.41
2023-05-09T11:01:01.301Z,101592.84
2023-05-09T11:03:49.959Z,101593.28
2023-05-09T11:06:46.498Z,101598.91
2023-05-09T11:09:34.123Z,101588.81
2023-05-09T11:12:10.117Z,101603.25
2023-05-09T11:14:38.184Z,101592.16
2023-05-09T11:17:07.768Z,101593.34
2023-05-09T11:19:47.316Z,101590.88
2023-05-09T11:22:20.829Z,101596.28
2023-05-09T11:24:50.154Z,101592.28
2023-05-09T11:27:25.826Z,101599.31
2023-05-09T11:29:58.414Z,101599.97
2023-05-09T11:32:32.426Z,101599.97
2023-05-09T11:35:10.387Z,101591.31
2023-05-09T11:37:48.673Z,101591.69
2023-05-09T11:40:21.074Z,101586.91
2023-05-09T11:42:58.369Z,101582.53
2023-05-09T11:45:28.811Z,101588.25
2023-05-09T11:47:59.552Z,101581.50
2023-05-09T11:50:27.382Z,101581.41
2023-05-09T11:52:55.070Z,101571.97
2023-05-09T11:55:23.022Z,101574.78
2023-05-09T11:57:52.777Z,101585.19
2023-05-09T12:00:24.816Z,101583.97
2023-05-09T12:02:53.305Z,101580.78
2023-05-09T12:05:22.899Z,101575.19
2023-05-09T12:07:52.501Z,101575.13
2023-05-09T12:10:22.055Z,101568.50
2023-05-09T12:12:51.755Z,101564.97
2023-05-09T12:15:19.920Z,101557.81
2023-05-09T12:17:51.343Z,101553.41
2023-05-09T12:20:19.786Z,101555.31
2023-05-09T12:22:53.359Z,101559.44
2023-05-09T12:25:22.848Z,101546.78
2023-05-09T12:27:50.670Z,101547.25
2023-05-09T12:30:18.773Z,101548.16
2023-05-09T12:32:46.798Z,101540.41
2023-05-09T12:35:14.918Z,101545.16
2023-05-09T12:37:55.414Z,101541.66
2023-05-09T12:40:23.410Z,101542.81
2023-05-09T12:42:54.391Z,101540.41
2023-05-09T12:45:22.748Z,101542.81
2023-05-09T12:47:54.033Z,101539.84
2023-05-09T12:50:21.880Z,101535.28
2023-05-09T12:53:02.518Z,101542.38
2023-05-09T12:55:32.905Z,101545.69
2023-05-09T12:58:02.417Z,101532.84
2023-05-09T13:00:42.496Z,101537.22
2023-05-09T13:03:30.692Z,101535.13
2023-05-09T13:06:00.354Z,101524.06
2023-05-09T13:08:29.174Z,101524.22
2023-05-09T13:11:11.849Z,101530.63
2023-05-09T13:13:43.036Z,101524.22
2023-05-09T13:16:12.801Z,101510.16
2023-05-09T13:18:42.483Z,101516.06
2023-05-09T13:21:10.027Z,101518.72
2023-05-09T13:23:37.686Z,101515.69
2023-05-09T13:26:05.310Z,101516.59
2023-05-09T13:28:33.059Z,101519.47
2023-05-09T13:31:01.419Z,101515.88
2023-05-09T13:33:29.196Z,101517.94
2023-05-09T13:35:56.768Z,101513.38
2023-05-09T13:38:24.436Z,101516.44
2023-05-09T13:40:52.028Z,101513.88
2023-05-09T13:43:19.906Z,101512.25
2023-05-09T13:45:47.450Z,101506.91
2023-05-09T13:48:15.722Z,101507.50
2023-05-09T13:50:43.248Z,101510.91
2023-05-09T13:53:10.864Z,101507.72
2023-05-09T13:55:38.565Z,101508.31
2023-05-09T13:58:06.574Z,101507.06
2023-05-09T14:00:34.349Z,101514.28
2023-05-09T14:03:03.147Z,101509.09
2023-05-09T14:05:34.395Z,101502.63
2023-05-09T14:08:02.080Z,101505.19
2023-05-09T14:10:29.868Z,101502.81
2023-05-09T14:12:57.656Z,101509.03
2023-05-09T14:15:25.209Z,101503.47
2023-05-09T14:17:52.810Z,101495.66
2023-05-09T14:20:20.969Z,101500.44
2023-05-09T14:22:48.877Z,101505.44
2023-05-09T14:25:16.498Z,101504.97
2023-05-09T14:27:44.123Z,101512.09
2023-05-09T14:30:12.718Z,101505.28
2023-05-09T14:32:40.925Z,101514.53
2023-05-09T14:35:09.588Z,101506.28
2023-05-09T14:37:37.755Z,101507.56
2023-05-09T14:40:05.957Z,101515.78
2023-05-09T14:42:33.809Z,101511.06
2023-05-09T14:45:01.563Z,101512.63
2023-05-09T14:47:29.496Z,101508.91
2023-05-09T14:49:57.254Z,101513.47
2023-05-09T14:52:24.917Z,101505.28
2023-05-09T14:54:52.580Z,101513.78
2023-05-09T14:57:20.154Z,101496.53
2023-05-09T14:59:47.755Z,101504.72
2023-05-09T15:02:15.278Z,101508.41
2023-05-09T15:04:43.972Z,101500.69
2023-05-09T15:07:11.940Z,101507.34
2023-05-09T15:09:39.792Z,101509.00
2023-05-09T15:12:07.616Z,101511.56
2023-05-09T15:14:35.456Z,101513.19
2023-05-09T15:17:04.430Z,101508.81
2023-05-09T15:19:34.052Z,101510.13
2023-05-09T15:22:01.820Z,101511.66
2023-05-09T15:24:29.794Z,101509.44
2023-05-09T15:26:57.299Z,101518.28
2023-05-09T15:29:24.822Z,101511.06
2023-05-09T15:31:52.502Z,101517.31
2023-05-09T15:34:22.328Z,101516.78
2023-05-09T15:36:49.928Z,101518.00
2023-05-09T15:39:17.471Z,101519.28
2023-05-09T15:41:44.970Z,101518.53
2023-05-09T15:44:14.521Z,101519.63
2023-05-09T15:46:42.141Z,101524.88
2023-05-09T15:49:09.609Z,101526.16
2023-05-09T15:51:37.116Z,101524.00
2023-05-09T15:54:04.675Z,101522.13
2023-05-09T15:56:32.633Z,101521.69
2023-05-09T15:59:00.413Z,101521.78
2023-05-09T16:01:28.143Z,101516.78
2023-05-09T16:03:55.939Z,101504.03
2023-05-09T16:06:23.539Z,101509.91
2023-05-09T16:08:51.084Z,101519.50
2023-05-09T16:11:18.568Z,101513.50
2023-05-09T16:13:46.749Z,101511.81
2023-05-09T16:16:14.268Z,101509.28
2023-05-09T16:18:41.899Z,101518.59
2023-05-09T16:21:09.507Z,101517.31
2023-05-09T16:23:37.187Z,101505.44
2023-05-09T16:26:04.788Z,101508.72
2023-05-09T16:28:32.505Z,101505.78
2023-05-09T16:31:05.039Z,101511.59
2023-05-09T16:33:33.633Z,101509.09
2023-05-09T16:36:01.580Z,101510.88
2023-05-09T16:38:30.067Z,101498.22
2023-05-09T16:40:57.608Z,101509.88
2023-05-09T16:43:25.753Z,101513.31
2023-05-09T16:45:53.321Z,101513.59
2023-05-09T16:48:20.920Z,101508.28
2023-05-09T16:50:48.773Z,101508.75
2023-05-09T16:53:17.541Z,101509.44
2023-05-09T16:55:45.244Z,101507.97
2023-05-09T16:58:12.826Z,101504.78
2023-05-09T17:00:40.658Z,101496.94
2023-05-09T17:03:08.337Z,101516.34
2023-05-09T17:05:36.076Z,101508.53
2023-05-09T17:08:03.760Z,101513.06
2023-05-09T17:10:32.213Z,101513.75
2023-05-09T17:12:59.930Z,101514.78
2023-05-09T17:15:28.538Z,101519.56
2023-05-09T17:17:56.356Z,101519.41
2023-05-09T17:20:25.723Z,101525.25
2023-05-09T17:22:53.253Z,101528.97
2023-05-09T17:25:20.740Z,101533.50
2023-05-09T17:27:49.377Z,101523.06
2023-05-09T17:30:17.925Z,101530.31
2023-05-09T17:32:47.026Z,101538.44
2023-05-09T17:35:15.131Z,101531.06
2023-05-09T17:37:42.750Z,101536.56
2023-05-09T17:40:10.778Z,101537.41
2023-05-09T17:42:38.748Z,101534.31
2023-05-09T17:45:07.036Z,101533.34
2023-05-09T17:47:34.712Z,101533.53
2023-05-09T17:50:02.245Z,101534.59
2023-05-09T17:52:29.959Z,101537.94
2023-05-09T17:54:57.458Z,101539.91
2023-05-09T17:57:24.972Z,101547.41
2023-05-09T17:59:52.648Z,101544.13
2023-05-09T18:02:24.289Z,101545.75
2023-05-09T18:04:52.464Z,101540.59
2023-05-09T18:07:20.321Z,101550.66
2023-05-09T18:09:47.955Z,101555.19
2023-05-09T18:12:16.026Z,101550.56
2023-05-09T18:14:43.553Z,101554.16
2023-05-09T18:17:11.057Z,101557.34
2023-05-09T18:19:52.389Z,101553.25
2023-05-09T18:22:21.758Z,101548.91
2023-05-09T18:24:49.401Z,101550.22
2023-05-09T18:27:17.009Z,101557.53
2023-05-09T18:29:46.888Z,101557.91
2023-05-09T18:32:14.913Z,101552.25
2023-05-09T18:34:42.570Z,101565.63
2023-05-09T18:37:10.643Z,101561.94
2023-05-09T18:39:38.297Z,101556.84
2023-05-09T18:42:06.530Z,101559.84
2023-05-09T18:44:34.141Z,101559.97
2023-05-09T18:47:01.795Z,101556.81
2023-05-09T18:49:30.057Z,101566.38
2023-05-09T18:52:00.020Z,101558.78
2023-05-09T18:54:27.616Z,101566.84
2023-05-09T18:56:55.169Z,101561.78
2023-05-09T18:59:23.601Z,101560.97
2023-05-09T19:01:51.263Z,101568.00
2023-05-09T19:04:19.724Z,101568.28
2023-05-09T19:06:47.915Z,101563.56
2023-05-09T19:09:15.593Z,101562.81
2023-05-09T19:11:43.456Z,101562.28
2023-05-09T19:14:11.041Z,101562.91
2023-05-09T19:16:38.576Z,101561.78
2023-05-09T19:19:06.339Z,101558.72
2023-05-09T19:21:35.612Z,101558.03
2023-05-09T19:24:04.773Z,101558.19
2023-05-09T19:26:32.610Z,101553.94
2023-05-09T19:29:00.772Z,101556.75
2023-05-09T19:31:28.407Z,101548.88
2023-05-09T19:33:55.899Z,101555.03
2023-05-09T19:36:23.425Z,101556.16
2023-05-09T19:38:51.014Z,101550.72
2023-05-09T19:41:18.563Z,101551.72
2023-05-09T19:43:46.980Z,101557.88
2023-05-09T19:46:14.533Z,101559.75
2023-05-09T19:48:42.227Z,101561.72
2023-05-09T19:51:12.388Z,101552.16
2023-05-09T19:53:40.942Z,101553.72
2023-05-09T19:56:08.858Z,101554.78
2023-05-09T19:58:36.567Z,101559.41
2023-05-09T20:01:06.843Z,101556.09
2023-05-09T20:03:37.115Z,101557.81
2023-05-09T20:06:04.840Z,101558.91
2023-05-09T20:08:32.647Z,101562.59
2023-05-09T20:11:00.308Z,101561.06
2023-05-09T20:13:29.498Z,101561.94
2023-05-09T20:15:59.141Z,101554.91
2023-05-09T20:18:27.026Z,101562.59
2023-05-09T20:20:54.970Z,101555.31
2023-05-09T20:23:22.780Z,101559.69
2023-05-09T20:25:50.234Z,101561.13
2023-05-09T20:28:20.329Z,101560.00
2023-05-09T20:30:49.029Z,101558.56
2023-05-09T20:33:17.346Z,101556.97
2023-05-09T20:35:45.032Z,101567.22
2023-05-09T20:38:12.526Z,101566.34
2023-05-09T20:40:41.465Z,101565.44
2023-05-09T20:43:09.067Z,101564.56
2023-05-09T20:45:39.830Z,101561.41
2023-05-09T20:48:08.057Z,101563.13
2023-05-09T20:50:35.941Z,101554.47
2023-05-09T20:53:03.488Z,101559.81
2023-05-09T20:55:31.040Z,101559.75
2023-05-09T20:57:58.675Z,101557.09
2023-05-09T21:00:26.345Z,101557.91
2023-05-09T21:02:56.915Z,101553.72
2023-05-09T21:05:26.016Z,101549.09
2023-05-09T21:07:54.003Z,101556.09
2023-05-09T21:10:21.574Z,101553.19
2023-05-09T21:12:49.619Z,101551.16
2023-05-09T21:15:17.260Z,101551.22
2023-05-09T21:17:45.023Z,101559.41
2023-05-09T21:20:12.772Z,101564.03
2023-05-09T21:22:40.465Z,101556.56
2023-05-09T21:25:09.618Z,101558.72
2023-05-09T21:27:37.399Z,101562.22
2023-05-09T21:30:06.194Z,101552.56
2023-05-09T21:32:33.805Z,101553.97
2023-05-09T21:35:02.587Z,101553.19
2023-05-09T21:37:30.405Z,101553.97
2023-05-09T21:39:58.025Z,101548.69
2023-05-09T21:42:25.590Z,101541.81
2023-05-09T21:44:53.117Z,101546.34
2023-05-09T21:47:20.868Z,101542.84
2023-05-09T21:49:48.418Z,101546.09
2023-05-09T21:52:16.542Z,101545.25
2023-05-09T21:54:44.287Z,101535.16
2023-05-09T21:57:12.028Z,101532.06
2023-05-09T21:59:39.787Z,101536.56
2023-05-09T22:02:07.366Z,101533.97
2023-05-09T22:04:36.211Z,101531.56
2023-05-09T22:07:04.002Z,101529.50
2023-05-09T22:09:33.041Z,101531.53
2023-05-09T22:12:00.641Z,101522.16
2023-05-09T22:14:28.304Z,101528.81
2023-05-09T22:16:56.033Z,101533.03
2023-05-09T22:19:23.600Z,101523.53
2023-05-09T22:21:51.276Z,101521.66
2023-05-09T22:24:19.029Z,101523.53
2023-05-09T22:26:46.589Z,101522.59
2023-05-09T22:29:16.562Z,101521.81
2023-05-09T22:31:44.965Z,101523.91
2023-05-09T22:34:12.528Z,101525.63
2023-05-09T22:36:40.023Z,101521.66
2023-05-09T22:39:07.560Z,101525.25
2023-05-09T22:41:35.054Z,101523.03
2023-05-09T22:44:02.659Z,101515.59
2023-05-09T22:46:30.746Z,101512.94
2023-05-09T22:48:58.300Z,101516.38
2023-05-09T22:51:26.175Z,101513.94
2023-05-09T22:53:53.735Z,101509.50
2023-05-09T22:56:22.360Z,101512.69
2023-05-09T22:58:49.981Z,101510.97
2023-05-09T23:01:17.693Z,101518.94
2023-05-09T23:03:45.387Z,101514.31
2023-05-09T23:06:13.037Z,101512.03
2023-05-09T23:08:40.628Z,101515.63
2023-05-09T23:11:08.174Z,101507.88
2023-05-09T23:13:35.709Z,101512.38
2023-05-09T23:16:03.658Z,101517.22
2023-05-09T23:18:31.812Z,101511.81
2023-05-09T23:20:59.335Z,101512.53
2023-05-09T23:23:27.208Z,101505.09
2023-05-09T23:25:54.828Z,101504.56
2023-05-09T23:28:25.379Z,101506.66
2023-05-09T23:30:55.976Z,101504.69
2023-05-09T23:33:23.861Z,101515.88
2023-05-09T23:35:51.455Z,101508.25
2023-05-09T23:38:20.027Z,101512.19
2023-05-09T23:40:47.700Z,101503.19
2023-05-09T23:43:15.296Z,101509.59
2023-05-09T23:45:42.925Z,101508.38
2023-05-09T23:48:10.529Z,101507.81
2023-05-09T23:50:38.130Z,101507.22
2023-05-09T23:53:05.753Z,101518.00
2023-05-09T23:55:33.626Z,101512.78
2023-05-09T23:58:02.554Z,101508.75
